sensor_id;sensor_type;location;lat;lon;timestamp;P1;durP1;ratioP1;P2;durP2;ratioP2
21758;SDS011;11041;50.854;20.580;2023-09-30T00:01:44;30.30;;;21.17;;
21758;SDS011;11041;50.854;20.580;2023-09-30T00:04:18;26.98;;;20.60;;
21758;SDS011;11041;50.854;20.580;2023-09-30T00:06:45;29.50;;;21.65;;
21758;SDS011;11041;50.854;20.580;2023-09-30T00:09:14;29.42;;;21.27;;
21758;SDS011;11041;50.854;20.580;2023-09-30T00:11:46;26.52;;;20.00;;
21758;SDS011;11041;50.854;20.580;2023-09-30T00:14:18;23.25;;;19.50;;
21758;SDS011;11041;50.854;20.580;2023-09-30T00:16:48;29.70;;;21.83;;
21758;SDS011;11041;50.854;20.580;2023-09-30T00:19:18;28.92;;;22.52;;
21758;SDS011;11041;50.854;20.580;2023-09-30T00:21:49;29.33;;;22.58;;
21758;SDS011;11041;50.854;20.580;2023-09-30T00:24:16;34.33;;;22.98;;
21758;SDS011;11041;50.854;20.580;2023-09-30T00:26:45;28.90;;;21.30;;
21758;SDS011;11041;50.854;20.580;2023-09-30T00:29:20;30.73;;;21.63;;
21758;SDS011;11041;50.854;20.580;2023-09-30T00:31:49;26.40;;;20.33;;
21758;SDS011;11041;50.854;20.580;2023-09-30T00:34:18;29.63;;;20.42;;
21758;SDS011;11041;50.854;20.580;2023-09-30T00:36:55;31.35;;;20.95;;
21758;SDS011;11041;50.854;20.580;2023-09-30T00:39:28;30.60;;;21.90;;
21758;SDS011;11041;50.854;20.580;2023-09-30T00:41:58;28.60;;;21.40;;
21758;SDS011;11041;50.854;20.580;2023-09-30T00:44:32;29.55;;;22.05;;
21758;SDS011;11041;50.854;20.580;2023-09-30T00:47:07;28.02;;;20.23;;
21758;SDS011;11041;50.854;20.580;2023-09-30T00:49:38;32.53;;;22.30;;
21758;SDS011;11041;50.854;20.580;2023-09-30T00:52:11;30.90;;;23.70;;
21758;SDS011;11041;50.854;20.580;2023-09-30T00:54:43;30.58;;;20.73;;
21758;SDS011;11041;50.854;20.580;2023-09-30T00:57:15;31.73;;;24.20;;
21758;SDS011;11041;50.854;20.580;2023-09-30T00:59:46;39.55;;;25.90;;
21758;SDS011;11041;50.854;20.580;2023-09-30T01:02:17;42.40;;;27.90;;
21758;SDS011;11041;50.854;20.580;2023-09-30T01:04:49;42.60;;;28.40;;
21758;SDS011;11041;50.854;20.580;2023-09-30T01:07:21;38.38;;;28.63;;
21758;SDS011;11041;50.854;20.580;2023-09-30T01:09:53;46.70;;;31.75;;
21758;SDS011;11041;50.854;20.580;2023-09-30T01:12:20;46.70;;;32.15;;
21758;SDS011;11041;50.854;20.580;2023-09-30T01:14:50;42.58;;;30.92;;
21758;SDS011;11041;50.854;20.580;2023-09-30T01:17:24;45.40;;;31.42;;
21758;SDS011;11041;50.854;20.580;2023-09-30T01:19:53;45.08;;;32.58;;
21758;SDS011;11041;50.854;20.580;2023-09-30T01:22:22;40.15;;;30.17;;
21758;SDS011;11041;50.854;20.580;2023-09-30T01:24:50;41.35;;;29.38;;
21758;SDS011;11041;50.854;20.580;2023-09-30T01:27:23;41.47;;;29.33;;
21758;SDS011;11041;50.854;20.580;2023-09-30T01:29:52;36.17;;;27.83;;
21758;SDS011;11041;50.854;20.580;2023-09-30T01:32:25;40.22;;;27.33;;
21758;SDS011;11041;50.854;20.580;2023-09-30T01:34:54;36.35;;;26.55;;
21758;SDS011;11041;50.854;20.580;2023-09-30T01:37:26;41.08;;;28.27;;
21758;SDS011;11041;50.854;20.580;2023-09-30T01:39:57;35.25;;;25.52;;
21758;SDS011;11041;50.854;20.580;2023-09-30T01:42:29;36.00;;;26.27;;
21758;SDS011;11041;50.854;20.580;2023-09-30T01:44:59;36.63;;;27.20;;
21758;SDS011;11041;50.854;20.580;2023-09-30T01:47:26;38.53;;;27.65;;
21758;SDS011;11041;50.854;20.580;2023-09-30T01:49:57;42.10;;;28.40;;
21758;SDS011;11041;50.854;20.580;2023-09-30T01:52:25;38.03;;;29.17;;
21758;SDS011;11041;50.854;20.580;2023-09-30T01:54:55;35.85;;;26.13;;
21758;SDS011;11041;50.854;20.580;2023-09-30T01:57:27;37.35;;;25.20;;
21758;SDS011;11041;50.854;20.580;2023-09-30T01:59:54;33.13;;;25.65;;
21758;SDS011;11041;50.854;20.580;2023-09-30T02:02:23;34.88;;;26.00;;
21758;SDS011;11041;50.854;20.580;2023-09-30T02:04:50;38.45;;;27.42;;
21758;SDS011;11041;50.854;20.580;2023-09-30T02:07:19;40.10;;;28.40;;
21758;SDS011;11041;50.854;20.580;2023-09-30T02:09:49;40.60;;;26.75;;
21758;SDS011;11041;50.854;20.580;2023-09-30T02:12:19;36.67;;;27.40;;
21758;SDS011;11041;50.854;20.580;2023-09-30T02:14:45;41.97;;;28.90;;
21758;SDS011;11041;50.854;20.580;2023-09-30T02:17:12;36.88;;;27.05;;
21758;SDS011;11041;50.854;20.580;2023-09-30T02:19:41;43.08;;;29.15;;
21758;SDS011;11041;50.854;20.580;2023-09-30T02:22:11;40.17;;;28.58;;
21758;SDS011;11041;50.854;20.580;2023-09-30T02:24:40;37.35;;;26.83;;
21758;SDS011;11041;50.854;20.580;2023-09-30T02:27:10;37.45;;;27.00;;
21758;SDS011;11041;50.854;20.580;2023-09-30T02:29:42;35.28;;;27.00;;
21758;SDS011;11041;50.854;20.580;2023-09-30T02:32:08;36.75;;;26.38;;
21758;SDS011;11041;50.854;20.580;2023-09-30T02:34:40;37.38;;;28.88;;
21758;SDS011;11041;50.854;20.580;2023-09-30T02:37:13;39.17;;;28.85;;
21758;SDS011;11041;50.854;20.580;2023-09-30T02:39:45;34.42;;;26.83;;
21758;SDS011;11041;50.854;20.580;2023-09-30T02:42:14;38.13;;;27.95;;
21758;SDS011;11041;50.854;20.580;2023-09-30T02:44:50;39.17;;;27.23;;
21758;SDS011;11041;50.854;20.580;2023-09-30T02:47:21;38.33;;;27.42;;
21758;SDS011;11041;50.854;20.580;2023-09-30T02:49:52;39.00;;;29.08;;
21758;SDS011;11041;50.854;20.580;2023-09-30T02:52:19;39.40;;;28.08;;
21758;SDS011;11041;50.854;20.580;2023-09-30T02:54:52;39.78;;;28.02;;
21758;SDS011;11041;50.854;20.580;2023-09-30T02:57:19;43.30;;;28.70;;
21758;SDS011;11041;50.854;20.580;2023-09-30T02:59:51;37.95;;;29.02;;
21758;SDS011;11041;50.854;20.580;2023-09-30T03:02:21;39.72;;;28.33;;
21758;SDS011;11041;50.854;20.580;2023-09-30T03:04:53;38.13;;;29.58;;
21758;SDS011;11041;50.854;20.580;2023-09-30T03:07:20;39.55;;;27.98;;
21758;SDS011;11041;50.854;20.580;2023-09-30T03:09:53;41.00;;;28.65;;
21758;SDS011;11041;50.854;20.580;2023-09-30T03:12:22;39.72;;;29.60;;
21758;SDS011;11041;50.854;20.580;2023-09-30T03:14:52;44.53;;;31.10;;
21758;SDS011;11041;50.854;20.580;2023-09-30T03:17:23;41.63;;;28.80;;
21758;SDS011;11041;50.854;20.580;2023-09-30T03:19:51;36.60;;;28.00;;
21758;SDS011;11041;50.854;20.580;2023-09-30T03:22:22;39.45;;;26.17;;
21758;SDS011;11041;50.854;20.580;2023-09-30T03:24:54;34.28;;;26.27;;
21758;SDS011;11041;50.854;20.580;2023-09-30T03:27:25;36.92;;;26.60;;
21758;SDS011;11041;50.854;20.580;2023-09-30T03:29:55;36.15;;;26.52;;
21758;SDS011;11041;50.854;20.580;2023-09-30T03:32:22;39.60;;;27.20;;
21758;SDS011;11041;50.854;20.580;2023-09-30T03:34:52;37.40;;;26.60;;
21758;SDS011;11041;50.854;20.580;2023-09-30T03:37:25;33.20;;;25.38;;
21758;SDS011;11041;50.854;20.580;2023-09-30T03:39:57;33.92;;;24.98;;
21758;SDS011;11041;50.854;20.580;2023-09-30T03:42:23;33.47;;;25.17;;
21758;SDS011;11041;50.854;20.580;2023-09-30T03:44:55;31.13;;;25.58;;
21758;SDS011;11041;50.854;20.580;2023-09-30T03:47:29;32.30;;;24.75;;
21758;SDS011;11041;50.854;20.580;2023-09-30T03:49:57;34.45;;;24.10;;
21758;SDS011;11041;50.854;20.580;2023-09-30T03:52:26;32.70;;;25.00;;
21758;SDS011;11041;50.854;20.580;2023-09-30T03:54:58;31.50;;;25.15;;
21758;SDS011;11041;50.854;20.580;2023-09-30T03:57:33;31.55;;;24.70;;
21758;SDS011;11041;50.854;20.580;2023-09-30T04:00:06;30.92;;;24.33;;
21758;SDS011;11041;50.854;20.580;2023-09-30T04:02:42;32.15;;;23.70;;
21758;SDS011;11041;50.854;20.580;2023-09-30T04:05:12;30.00;;;24.88;;
21758;SDS011;11041;50.854;20.580;2023-09-30T04:07:45;29.25;;;22.85;;
21758;SDS011;11041;50.854;20.580;2023-09-30T04:10:19;28.58;;;23.05;;
21758;SDS011;11041;50.854;20.580;2023-09-30T04:12:51;27.25;;;21.65;;
21758;SDS011;11041;50.854;20.580;2023-09-30T04:15:19;31.67;;;23.17;;
21758;SDS011;11041;50.854;20.580;2023-09-30T04:17:47;26.30;;;21.60;;
21758;SDS011;11041;50.854;20.580;2023-09-30T04:20:19;27.00;;;21.83;;
21758;SDS011;11041;50.854;20.580;2023-09-30T04:22:49;29.98;;;22.00;;
21758;SDS011;11041;50.854;20.580;2023-09-30T04:25:23;26.45;;;21.63;;
21758;SDS011;11041;50.854;20.580;2023-09-30T04:27:52;25.08;;;20.77;;
21758;SDS011;11041;50.854;20.580;2023-09-30T04:30:23;25.77;;;21.90;;
21758;SDS011;11041;50.854;20.580;2023-09-30T04:32:55;25.90;;;19.88;;
21758;SDS011;11041;50.854;20.580;2023-09-30T04:35:24;29.58;;;20.50;;
21758;SDS011;11041;50.854;20.580;2023-09-30T04:37:52;24.50;;;20.85;;
21758;SDS011;11041;50.854;20.580;2023-09-30T04:40:23;24.35;;;19.15;;
21758;SDS011;11041;50.854;20.580;2023-09-30T04:42:53;25.90;;;21.15;;
21758;SDS011;11041;50.854;20.580;2023-09-30T04:45:26;31.17;;;20.38;;
21758;SDS011;11041;50.854;20.580;2023-09-30T04:47:58;24.75;;;19.27;;
21758;SDS011;11041;50.854;20.580;2023-09-30T04:50:31;29.17;;;20.33;;
21758;SDS011;11041;50.854;20.580;2023-09-30T04:53:04;29.02;;;20.75;;
21758;SDS011;11041;50.854;20.580;2023-09-30T04:55:35;24.42;;;19.20;;
21758;SDS011;11041;50.854;20.580;2023-09-30T04:58:04;24.92;;;19.73;;
21758;SDS011;11041;50.854;20.580;2023-09-30T05:00:33;25.13;;;21.10;;
21758;SDS011;11041;50.854;20.580;2023-09-30T05:03:03;31.20;;;20.20;;
21758;SDS011;11041;50.854;20.580;2023-09-30T05:05:33;25.95;;;20.38;;
21758;SDS011;11041;50.854;20.580;2023-09-30T05:08:02;30.92;;;21.27;;
21758;SDS011;11041;50.854;20.580;2023-09-30T05:10:32;31.88;;;22.15;;
21758;SDS011;11041;50.854;20.580;2023-09-30T05:12:59;27.05;;;21.90;;
21758;SDS011;11041;50.854;20.580;2023-09-30T05:15:26;28.15;;;21.98;;
21758;SDS011;11041;50.854;20.580;2023-09-30T05:17:54;31.70;;;21.63;;
21758;SDS011;11041;50.854;20.580;2023-09-30T05:20:22;29.00;;;22.60;;
21758;SDS011;11041;50.854;20.580;2023-09-30T05:22:50;29.58;;;21.70;;
21758;SDS011;11041;50.854;20.580;2023-09-30T05:25:18;31.80;;;22.45;;
21758;SDS011;11041;50.854;20.580;2023-09-30T05:27:45;25.70;;;20.90;;
21758;SDS011;11041;50.854;20.580;2023-09-30T05:30:15;30.05;;;20.83;;
21758;SDS011;11041;50.854;20.580;2023-09-30T05:32:43;27.52;;;22.13;;
21758;SDS011;11041;50.854;20.580;2023-09-30T05:35:12;28.88;;;22.25;;
21758;SDS011;11041;50.854;20.580;2023-09-30T05:37:42;28.33;;;22.27;;
21758;SDS011;11041;50.854;20.580;2023-09-30T05:40:13;29.77;;;23.80;;
21758;SDS011;11041;50.854;20.580;2023-09-30T05:42:56;27.90;;;21.70;;
21758;SDS011;11041;50.854;20.580;2023-09-30T05:45:25;26.20;;;21.52;;
21758;SDS011;11041;50.854;20.580;2023-09-30T05:48:03;30.65;;;21.85;;
21758;SDS011;11041;50.854;20.580;2023-09-30T05:50:33;28.35;;;22.00;;
21758;SDS011;11041;50.854;20.580;2023-09-30T05:53:04;30.98;;;21.75;;
21758;SDS011;11041;50.854;20.580;2023-09-30T05:55:31;26.58;;;20.85;;
21758;SDS011;11041;50.854;20.580;2023-09-30T05:57:57;28.83;;;20.45;;
21758;SDS011;11041;50.854;20.580;2023-09-30T06:00:26;26.70;;;20.55;;
21758;SDS011;11041;50.854;20.580;2023-09-30T06:02:56;27.10;;;19.90;;
21758;SDS011;11041;50.854;20.580;2023-09-30T06:05:28;28.17;;;20.92;;
21758;SDS011;11041;50.854;20.580;2023-09-30T06:08:01;25.83;;;20.48;;
21758;SDS011;11041;50.854;20.580;2023-09-30T06:10:40;28.20;;;21.90;;
21758;SDS011;11041;50.854;20.580;2023-09-30T06:13:08;30.13;;;21.10;;
21758;SDS011;11041;50.854;20.580;2023-09-30T06:15:42;27.63;;;22.30;;
21758;SDS011;11041;50.854;20.580;2023-09-30T06:18:12;26.60;;;21.58;;
21758;SDS011;11041;50.854;20.580;2023-09-30T06:20:45;25.75;;;21.42;;
21758;SDS011;11041;50.854;20.580;2023-09-30T06:23:14;30.60;;;21.63;;
21758;SDS011;11041;50.854;20.580;2023-09-30T06:25:45;29.08;;;22.30;;
21758;SDS011;11041;50.854;20.580;2023-09-30T06:28:17;29.20;;;22.40;;
21758;SDS011;11041;50.854;20.580;2023-09-30T06:30:52;26.05;;;22.15;;
21758;SDS011;11041;50.854;20.580;2023-09-30T06:33:21;27.55;;;22.65;;
21758;SDS011;11041;50.854;20.580;2023-09-30T06:35:50;25.65;;;21.27;;
21758;SDS011;11041;50.854;20.580;2023-09-30T06:38:19;30.92;;;23.48;;
21758;SDS011;11041;50.854;20.580;2023-09-30T06:40:51;25.23;;;21.38;;
21758;SDS011;11041;50.854;20.580;2023-09-30T06:43:20;29.67;;;23.83;;
21758;SDS011;11041;50.854;20.580;2023-09-30T06:45:50;25.90;;;21.98;;
21758;SDS011;11041;50.854;20.580;2023-09-30T06:48:18;25.70;;;21.05;;
21758;SDS011;11041;50.854;20.580;2023-09-30T06:50:46;27.58;;;22.33;;
21758;SDS011;11041;50.854;20.580;2023-09-30T06:53:18;25.10;;;21.30;;
21758;SDS011;11041;50.854;20.580;2023-09-30T06:55:47;27.90;;;21.38;;
21758;SDS011;11041;50.854;20.580;2023-09-30T06:58:16;24.10;;;20.65;;
21758;SDS011;11041;50.854;20.580;2023-09-30T07:00:52;28.80;;;21.63;;
21758;SDS011;11041;50.854;20.580;2023-09-30T07:03:21;28.92;;;22.85;;
21758;SDS011;11041;50.854;20.580;2023-09-30T07:05:48;28.90;;;22.20;;
21758;SDS011;11041;50.854;20.580;2023-09-30T07:08:16;26.95;;;21.95;;
21758;SDS011;11041;50.854;20.580;2023-09-30T07:10:44;25.77;;;22.35;;
21758;SDS011;11041;50.854;20.580;2023-09-30T07:13:20;27.83;;;22.25;;
21758;SDS011;11041;50.854;20.580;2023-09-30T07:15:49;27.50;;;22.00;;
21758;SDS011;11041;50.854;20.580;2023-09-30T07:18:19;24.70;;;21.65;;
21758;SDS011;11041;50.854;20.580;2023-09-30T07:20:49;26.17;;;20.42;;
21758;SDS011;11041;50.854;20.580;2023-09-30T07:23:17;25.05;;;20.48;;
21758;SDS011;11041;50.854;20.580;2023-09-30T07:25:48;27.00;;;21.02;;
21758;SDS011;11041;50.854;20.580;2023-09-30T07:28:16;25.25;;;19.73;;
21758;SDS011;11041;50.854;20.580;2023-09-30T07:30:44;24.88;;;20.42;;
21758;SDS011;11041;50.854;20.580;2023-09-30T07:33:13;22.92;;;19.92;;
21758;SDS011;11041;50.854;20.580;2023-09-30T07:35:42;25.20;;;20.73;;
21758;SDS011;11041;50.854;20.580;2023-09-30T07:38:09;24.27;;;21.08;;
21758;SDS011;11041;50.854;20.580;2023-09-30T07:40:42;26.50;;;21.27;;
21758;SDS011;11041;50.854;20.580;2023-09-30T07:43:10;27.63;;;21.15;;
21758;SDS011;11041;50.854;20.580;2023-09-30T07:45:38;30.50;;;22.15;;
21758;SDS011;11041;50.854;20.580;2023-09-30T07:48:08;28.85;;;21.77;;
21758;SDS011;11041;50.854;20.580;2023-09-30T07:50:36;31.88;;;22.50;;
21758;SDS011;11041;50.854;20.580;2023-09-30T07:53:08;27.67;;;21.98;;
21758;SDS011;11041;50.854;20.580;2023-09-30T07:55:38;27.20;;;21.65;;
21758;SDS011;11041;50.854;20.580;2023-09-30T07:58:08;28.10;;;22.25;;
21758;SDS011;11041;50.854;20.580;2023-09-30T08:00:36;34.00;;;22.85;;
21758;SDS011;11041;50.854;20.580;2023-09-30T08:03:05;29.63;;;22.15;;
21758;SDS011;11041;50.854;20.580;2023-09-30T08:05:38;30.20;;;22.88;;
21758;SDS011;11041;50.854;20.580;2023-09-30T08:08:06;25.48;;;22.63;;
21758;SDS011;11041;50.854;20.580;2023-09-30T08:10:34;28.42;;;23.30;;
21758;SDS011;11041;50.854;20.580;2023-09-30T08:13:03;32.25;;;26.15;;
21758;SDS011;11041;50.854;20.580;2023-09-30T08:15:31;32.53;;;24.38;;
21758;SDS011;11041;50.854;20.580;2023-09-30T08:18:04;27.35;;;22.60;;
21758;SDS011;11041;50.854;20.580;2023-09-30T08:20:41;32.03;;;23.52;;
21758;SDS011;11041;50.854;20.580;2023-09-30T08:23:11;28.70;;;23.67;;
21758;SDS011;11041;50.854;20.580;2023-09-30T08:25:42;30.08;;;23.23;;
21758;SDS011;11041;50.854;20.580;2023-09-30T08:28:13;30.77;;;21.65;;
21758;SDS011;11041;50.854;20.580;2023-09-30T08:30:43;26.42;;;20.95;;
21758;SDS011;11041;50.854;20.580;2023-09-30T08:33:10;26.58;;;21.38;;
21758;SDS011;11041;50.854;20.580;2023-09-30T08:35:45;27.83;;;21.55;;
21758;SDS011;11041;50.854;20.580;2023-09-30T08:38:12;25.58;;;22.60;;
21758;SDS011;11041;50.854;20.580;2023-09-30T08:40:44;26.25;;;21.77;;
21758;SDS011;11041;50.854;20.580;2023-09-30T08:43:13;25.98;;;20.63;;
21758;SDS011;11041;50.854;20.580;2023-09-30T08:45:50;28.50;;;22.80;;
21758;SDS011;11041;50.854;20.580;2023-09-30T08:48:20;30.20;;;21.90;;
21758;SDS011;11041;50.854;20.580;2023-09-30T08:50:50;28.30;;;21.60;;
21758;SDS011;11041;50.854;20.580;2023-09-30T08:53:23;23.55;;;20.73;;
21758;SDS011;11041;50.854;20.580;2023-09-30T08:55:55;27.45;;;19.73;;
21758;SDS011;11041;50.854;20.580;2023-09-30T08:58:29;24.65;;;21.08;;
21758;SDS011;11041;50.854;20.580;2023-09-30T09:01:01;23.25;;;20.58;;
21758;SDS011;11041;50.854;20.580;2023-09-30T09:03:30;24.23;;;20.30;;
21758;SDS011;11041;50.854;20.580;2023-09-30T09:06:00;27.70;;;20.48;;
21758;SDS011;11041;50.854;20.580;2023-09-30T09:08:27;28.98;;;22.40;;
21758;SDS011;11041;50.854;20.580;2023-09-30T09:10:59;29.42;;;23.63;;
21758;SDS011;11041;50.854;20.580;2023-09-30T09:13:44;31.55;;;22.55;;
21758;SDS011;11041;50.854;20.580;2023-09-30T09:16:23;25.63;;;20.98;;
21758;SDS011;11041;50.854;20.580;2023-09-30T09:18:51;25.40;;;21.67;;
21758;SDS011;11041;50.854;20.580;2023-09-30T09:21:20;27.27;;;23.60;;
21758;SDS011;11041;50.854;20.580;2023-09-30T09:23:51;29.92;;;23.55;;
21758;SDS011;11041;50.854;20.580;2023-09-30T09:28:57;30.55;;;24.50;;
21758;SDS011;11041;50.854;20.580;2023-09-30T09:31:34;30.10;;;23.60;;
21758;SDS011;11041;50.854;20.580;2023-09-30T09:34:13;28.77;;;24.08;;
21758;SDS011;11041;50.854;20.580;2023-09-30T09:36:43;27.73;;;24.58;;
21758;SDS011;11041;50.854;20.580;2023-09-30T09:39:14;31.17;;;26.15;;
21758;SDS011;11041;50.854;20.580;2023-09-30T09:42:01;28.48;;;23.45;;
21758;SDS011;11041;50.854;20.580;2023-09-30T09:44:28;27.85;;;23.90;;
21758;SDS011;11041;50.854;20.580;2023-09-30T09:46:57;28.95;;;24.00;;
21758;SDS011;11041;50.854;20.580;2023-09-30T09:49:29;29.83;;;24.42;;
21758;SDS011;11041;50.854;20.580;2023-09-30T09:52:00;32.47;;;27.15;;
21758;SDS011;11041;50.854;20.580;2023-09-30T09:54:29;32.60;;;27.98;;
21758;SDS011;11041;50.854;20.580;2023-09-30T09:57:00;32.65;;;27.88;;
21758;SDS011;11041;50.854;20.580;2023-09-30T09:59:31;33.75;;;27.27;;
21758;SDS011;11041;50.854;20.580;2023-09-30T10:01:59;33.63;;;28.10;;
21758;SDS011;11041;50.854;20.580;2023-09-30T10:04:36;33.75;;;29.50;;
21758;SDS011;11041;50.854;20.580;2023-09-30T10:07:18;32.35;;;26.15;;
21758;SDS011;11041;50.854;20.580;2023-09-30T10:10:05;30.27;;;26.13;;
21758;SDS011;11041;50.854;20.580;2023-09-30T10:12:41;36.85;;;28.48;;
21758;SDS011;11041;50.854;20.580;2023-09-30T10:17:59;37.00;;;29.48;;
21758;SDS011;11041;50.854;20.580;2023-09-30T10:20:36;38.17;;;30.25;;
21758;SDS011;11041;50.854;20.580;2023-09-30T10:23:17;39.95;;;31.45;;
21758;SDS011;11041;50.854;20.580;2023-09-30T10:28:47;37.78;;;29.95;;
21758;SDS011;11041;50.854;20.580;2023-09-30T10:31:20;40.20;;;30.25;;
21758;SDS011;11041;50.854;20.580;2023-09-30T10:36:37;39.38;;;30.77;;
21758;SDS011;11041;50.854;20.580;2023-09-30T10:39:11;44.55;;;31.50;;
21758;SDS011;11041;50.854;20.580;2023-09-30T10:49:50;34.08;;;28.02;;
21758;SDS011;11041;50.854;20.580;2023-09-30T10:52:22;32.08;;;25.15;;
21758;SDS011;11041;50.854;20.580;2023-09-30T10:54:52;32.13;;;27.08;;
21758;SDS011;11041;50.854;20.580;2023-09-30T10:57:32;32.58;;;26.48;;
21758;SDS011;11041;50.854;20.580;2023-09-30T11:00:13;32.60;;;26.48;;
21758;SDS011;11041;50.854;20.580;2023-09-30T11:02:51;28.25;;;23.85;;
21758;SDS011;11041;50.854;20.580;2023-09-30T11:05:19;28.45;;;23.77;;
21758;SDS011;11041;50.854;20.580;2023-09-30T11:07:49;27.15;;;22.52;;
21758;SDS011;11041;50.854;20.580;2023-09-30T11:10:18;29.38;;;22.10;;
21758;SDS011;11041;50.854;20.580;2023-09-30T11:12:55;23.35;;;20.15;;
21758;SDS011;11041;50.854;20.580;2023-09-30T11:15:24;26.52;;;20.60;;
21758;SDS011;11041;50.854;20.580;2023-09-30T11:18:12;24.00;;;20.63;;
21758;SDS011;11041;50.854;20.580;2023-09-30T11:20:53;28.85;;;20.45;;
21758;SDS011;11041;50.854;20.580;2023-09-30T11:23:40;25.17;;;21.40;;
21758;SDS011;11041;50.854;20.580;2023-09-30T11:26:12;27.85;;;21.13;;
21758;SDS011;11041;50.854;20.580;2023-09-30T11:28:42;25.17;;;21.63;;
21758;SDS011;11041;50.854;20.580;2023-09-30T11:31:15;25.85;;;20.38;;
21758;SDS011;11041;50.854;20.580;2023-09-30T11:33:47;23.88;;;19.98;;
21758;SDS011;11041;50.854;20.580;2023-09-30T11:36:22;26.25;;;19.40;;
21758;SDS011;11041;50.854;20.580;2023-09-30T11:38:49;24.60;;;19.35;;
21758;SDS011;11041;50.854;20.580;2023-09-30T11:41:20;24.58;;;18.63;;
21758;SDS011;11041;50.854;20.580;2023-09-30T11:44:04;21.25;;;18.65;;
21758;SDS011;11041;50.854;20.580;2023-09-30T11:46:47;22.27;;;18.83;;
21758;SDS011;11041;50.854;20.580;2023-09-30T11:49:34;25.15;;;19.60;;
21758;SDS011;11041;50.854;20.580;2023-09-30T11:52:25;23.77;;;19.63;;
21758;SDS011;11041;50.854;20.580;2023-09-30T11:54:56;22.88;;;19.88;;
21758;SDS011;11041;50.854;20.580;2023-09-30T11:57:23;24.45;;;18.67;;
21758;SDS011;11041;50.854;20.580;2023-09-30T11:59:54;143.45;;;89.05;;
21758;SDS011;11041;50.854;20.580;2023-09-30T12:02:25;24.15;;;17.88;;
21758;SDS011;11041;50.854;20.580;2023-09-30T12:04:55;25.23;;;16.50;;
21758;SDS011;11041;50.854;20.580;2023-09-30T12:07:24;19.75;;;15.25;;
21758;SDS011;11041;50.854;20.580;2023-09-30T12:09:53;20.92;;;14.50;;
21758;SDS011;11041;50.854;20.580;2023-09-30T12:12:23;20.30;;;11.88;;
21758;SDS011;11041;50.854;20.580;2023-09-30T12:14:53;23.60;;;13.15;;
21758;SDS011;11041;50.854;20.580;2023-09-30T12:17:24;20.80;;;13.35;;
21758;SDS011;11041;50.854;20.580;2023-09-30T12:19:53;19.23;;;10.93;;
21758;SDS011;11041;50.854;20.580;2023-09-30T12:22:21;18.60;;;12.55;;
21758;SDS011;11041;50.854;20.580;2023-09-30T12:24:50;20.77;;;12.90;;
21758;SDS011;11041;50.854;20.580;2023-09-30T12:27:18;19.02;;;13.52;;
21758;SDS011;11041;50.854;20.580;2023-09-30T12:29:45;17.52;;;11.55;;
21758;SDS011;11041;50.854;20.580;2023-09-30T12:32:15;19.27;;;12.63;;
21758;SDS011;11041;50.854;20.580;2023-09-30T12:34:47;22.70;;;11.38;;
21758;SDS011;11041;50.854;20.580;2023-09-30T12:37:21;16.40;;;10.88;;
21758;SDS011;11041;50.854;20.580;2023-09-30T12:39:51;18.17;;;10.52;;
21758;SDS011;11041;50.854;20.580;2023-09-30T12:42:19;17.80;;;11.45;;
21758;SDS011;11041;50.854;20.580;2023-09-30T12:44:50;18.95;;;11.60;;
21758;SDS011;11041;50.854;20.580;2023-09-30T12:47:25;19.80;;;10.80;;
21758;SDS011;11041;50.854;20.580;2023-09-30T12:49:55;23.85;;;12.23;;
21758;SDS011;11041;50.854;20.580;2023-09-30T12:52:26;15.90;;;11.60;;
21758;SDS011;11041;50.854;20.580;2023-09-30T12:54:53;26.23;;;13.73;;
21758;SDS011;11041;50.854;20.580;2023-09-30T12:57:29;23.05;;;12.23;;
21758;SDS011;11041;50.854;20.580;2023-09-30T12:59:59;19.00;;;12.25;;
21758;SDS011;11041;50.854;20.580;2023-09-30T13:02:36;23.58;;;13.65;;
21758;SDS011;11041;50.854;20.580;2023-09-30T13:05:07;19.00;;;12.35;;
21758;SDS011;11041;50.854;20.580;2023-09-30T13:07:48;21.83;;;13.00;;
21758;SDS011;11041;50.854;20.580;2023-09-30T13:10:18;21.50;;;12.05;;
21758;SDS011;11041;50.854;20.580;2023-09-30T13:12:51;17.85;;;11.70;;
21758;SDS011;11041;50.854;20.580;2023-09-30T13:15:23;11.45;;;7.63;;
21758;SDS011;11041;50.854;20.580;2023-09-30T13:17:52;11.05;;;6.82;;
21758;SDS011;11041;50.854;20.580;2023-09-30T13:20:20;10.90;;;7.65;;
21758;SDS011;11041;50.854;20.580;2023-09-30T13:22:51;10.18;;;6.95;;
21758;SDS011;11041;50.854;20.580;2023-09-30T13:25:20;10.02;;;6.50;;
21758;SDS011;11041;50.854;20.580;2023-09-30T13:27:52;8.48;;;6.85;;
21758;SDS011;11041;50.854;20.580;2023-09-30T13:30:23;7.65;;;6.55;;
21758;SDS011;11041;50.854;20.580;2023-09-30T13:32:53;9.27;;;6.90;;
21758;SDS011;11041;50.854;20.580;2023-09-30T13:35:21;9.45;;;6.57;;
21758;SDS011;11041;50.854;20.580;2023-09-30T13:37:50;7.93;;;4.90;;
21758;SDS011;11041;50.854;20.580;2023-09-30T13:40:18;5.43;;;4.82;;
21758;SDS011;11041;50.854;20.580;2023-09-30T13:42:51;8.38;;;5.10;;
21758;SDS011;11041;50.854;20.580;2023-09-30T13:45:28;8.80;;;5.40;;
21758;SDS011;11041;50.854;20.580;2023-09-30T13:48:09;6.72;;;4.63;;
21758;SDS011;11041;50.854;20.580;2023-09-30T13:50:37;4.05;;;3.33;;
21758;SDS011;11041;50.854;20.580;2023-09-30T13:53:08;5.82;;;3.70;;
21758;SDS011;11041;50.854;20.580;2023-09-30T13:55:40;5.03;;;3.35;;
21758;SDS011;11041;50.854;20.580;2023-09-30T13:58:10;6.40;;;3.30;;
21758;SDS011;11041;50.854;20.580;2023-09-30T14:00:45;5.85;;;3.50;;
21758;SDS011;11041;50.854;20.580;2023-09-30T14:03:22;7.00;;;3.00;;
21758;SDS011;11041;50.854;20.580;2023-09-30T14:05:52;4.45;;;3.00;;
21758;SDS011;11041;50.854;20.580;2023-09-30T14:08:22;7.97;;;3.38;;
21758;SDS011;11041;50.854;20.580;2023-09-30T14:10:49;4.47;;;3.13;;
21758;SDS011;11041;50.854;20.580;2023-09-30T14:13:20;6.47;;;3.40;;
21758;SDS011;11041;50.854;20.580;2023-09-30T14:15:50;5.05;;;2.88;;
21758;SDS011;11041;50.854;20.580;2023-09-30T14:18:20;4.57;;;3.05;;
21758;SDS011;11041;50.854;20.580;2023-09-30T14:20:47;4.93;;;2.78;;
21758;SDS011;11041;50.854;20.580;2023-09-30T14:23:20;7.57;;;2.53;;
21758;SDS011;11041;50.854;20.580;2023-09-30T14:25:55;5.43;;;2.78;;
21758;SDS011;11041;50.854;20.580;2023-09-30T14:28:25;6.10;;;2.28;;
21758;SDS011;11041;50.854;20.580;2023-09-30T14:31:02;4.60;;;2.67;;
21758;SDS011;11041;50.854;20.580;2023-09-30T14:33:32;5.40;;;2.45;;
21758;SDS011;11041;50.854;20.580;2023-09-30T14:36:00;6.35;;;3.03;;
21758;SDS011;11041;50.854;20.580;2023-09-30T14:38:32;6.15;;;2.95;;
21758;SDS011;11041;50.854;20.580;2023-09-30T14:41:06;7.60;;;3.03;;
21758;SDS011;11041;50.854;20.580;2023-09-30T14:43:36;6.43;;;3.17;;
21758;SDS011;11041;50.854;20.580;2023-09-30T14:46:05;5.65;;;2.83;;
21758;SDS011;11041;50.854;20.580;2023-09-30T14:48:37;4.93;;;3.35;;
21758;SDS011;11041;50.854;20.580;2023-09-30T14:51:03;9.75;;;3.35;;
21758;SDS011;11041;50.854;20.580;2023-09-30T14:53:34;5.25;;;3.22;;